Time;durP1;ratioP1;P1;durP2;ratioP2;P2;SDS_P1;SDS_P2;PMS_P1;PMS_P2;Temp;Humidity;BMP_temperature;BMP_pressure;BME280_temperature;BME280_humidity;BME280_pressure;Samples;Min_cycle;Max_cycle;Signal;HPM_P1;HPM_P2
2021/05/16 00:02:02;;;;;;;0.37;0.37;;;;;;;9.49;96.20;99024.19;5071054;28;20182;-73
2021/05/16 00:04:28;;;;;;;0.33;0.33;;;;;;;9.49;96.67;99026.91;5070112;28;20621;-73
2021/05/16 00:06:53;;;;;;;0.50;0.50;;;;;;;9.53;96.72;99032.47;5070901;28;20566;-74
2021/05/16 00:09:19;;;;;;;0.40;0.40;;;;;;;9.61;96.86;99034.31;5069621;28;20626;-73
2021/05/16 00:11:44;;;;;;;0.30;0.23;;;;;;;9.61;96.59;99022.59;5070621;28;20692;-73
2021/05/16 00:14:10;;;;;;;0.40;0.40;;;;;;;9.56;97.06;99026.34;5069743;28;20174;-74
2021/05/16 00:16:36;;;;;;;0.30;0.30;;;;;;;9.52;96.90;99030.88;5070784;28;20239;-73
2021/05/16 00:19:02;;;;;;;0.50;0.50;;;;;;;9.54;96.44;99026.66;5070657;28;20749;-74
2021/05/16 00:21:28;;;;;;;0.60;0.50;;;;;;;9.52;96.04;99020.75;5070762;28;20520;-72
2021/05/16 00:23:53;;;;;;;0.33;0.33;;;;;;;9.51;95.87;99024.63;5070637;28;20177;-73
2021/05/16 00:26:19;;;;;;;0.43;0.43;;;;;;;9.47;96.30;99018.28;5070659;28;20170;-73
2021/05/16 00:28:44;;;;;;;0.60;0.60;;;;;;;9.48;96.62;99024.50;5070607;28;20692;-75
2021/05/16 00:31:09;;;;;;;0.30;0.30;;;;;;;9.24;96.76;99020.59;5070638;28;20568;-74
2021/05/16 00:33:35;;;;;;;0.40;0.40;;;;;;;9.08;97.78;99013.41;5070567;28;20219;-75
2021/05/16 00:36:00;;;;;;;0.60;0.60;;;;;;;9.17;98.21;99014.13;5070552;28;20249;-75
2021/05/16 00:38:26;;;;;;;0.60;0.60;;;;;;;9.21;98.66;99020.47;5070572;28;20522;-73
2021/05/16 00:40:51;;;;;;;0.40;0.40;;;;;;;9.22;97.92;99016.63;5070600;28;20197;-73
2021/05/16 00:43:16;;;;;;;0.50;0.50;;;;;;;9.34;97.92;99022.09;5070468;28;20174;-74
2021/05/16 00:45:46;;;;;;;0.53;0.53;;;;;;;9.22;97.92;99022.88;5070581;28;20178;-73
2021/05/16 00:48:11;;;;;;;0.77;0.77;;;;;;;9.33;98.13;99025.97;5070344;28;20174;-73
2021/05/16 00:50:44;;;;;;;0.70;0.67;;;;;;;9.44;97.88;99027.13;5070400;28;20536;-74
2021/05/16 00:53:10;;;;;;;0.20;0.20;;;;;;;9.40;97.54;99019.94;5070381;28;20174;-74
2021/05/16 00:55:37;;;;;;;0.93;0.57;;;;;;;9.43;97.54;99022.81;5070519;28;20642;-75
2021/05/16 00:58:04;;;;;;;0.77;0.47;;;;;;;9.43;97.23;99025.53;5068853;28;20186;-72
2021/05/16 01:00:33;;;;;;;0.43;0.43;;;;;;;9.58;96.39;99028.75;5070372;28;20653;-75
2021/05/16 01:02:58;;;;;;;0.50;0.50;;;;;;;9.53;97.22;99024.28;5070442;28;20175;-73
2021/05/16 01:05:24;;;;;;;0.57;0.57;;;;;;;9.50;97.30;99024.97;5070354;28;20182;-72
2021/05/16 01:07:51;;;;;;;0.40;0.40;;;;;;;9.53;97.48;99027.00;5070012;28;20175;-73
2021/05/16 01:10:18;;;;;;;0.50;0.50;;;;;;;9.48;98.27;99022.59;5070159;28;20256;-73
2021/05/16 01:12:49;;;;;;;1.87;1.07;;;;;;;9.42;98.31;99023.94;5070277;28;20221;-72
2021/05/16 01:15:18;;;;;;;0.40;0.40;;;;;;;9.39;99.04;99021.09;5070298;28;20651;-72
2021/05/16 01:17:44;;;;;;;2.03;0.63;;;;;;;9.41;99.22;99025.09;5073841;28;20171;-73
2021/05/16 01:20:13;;;;;;;2.53;0.80;;;;;;;9.40;99.67;99020.78;5073865;28;20175;-73
2021/05/16 01:22:40;;;;;;;0.40;0.40;;;;;;;9.39;99.73;99021.88;5073741;28;20249;-75
2021/05/16 01:25:07;;;;;;;0.90;0.90;;;;;;;9.40;100.00;99026.22;5073789;28;20213;-73
2021/05/16 01:27:33;;;;;;;0.70;0.70;;;;;;;9.37;100.00;99021.44;5073797;28;20173;-73
2021/05/16 01:29:59;;;;;;;0.77;0.77;;;;;;;9.41;100.00;99019.63;5073543;28;20198;-72
2021/05/16 01:32:25;;;;;;;1.23;0.63;;;;;;;9.44;100.00;99020.88;5073665;28;20174;-75
2021/05/16 01:34:50;;;;;;;0.43;0.43;;;;;;;9.45;100.00;99026.00;5073689;28;20187;-74
2021/05/16 01:37:17;;;;;;;7.00;0.80;;;;;;;9.49;100.00;99021.44;5072363;28;20186;-75
2021/05/16 01:39:45;;;;;;;0.50;0.50;;;;;;;9.47;99.86;99023.72;5073504;28;20202;-73
2021/05/16 01:42:11;;;;;;;0.57;0.57;;;;;;;9.61;99.55;99037.03;5072320;28;20236;-75
2021/05/16 01:44:37;;;;;;;0.70;0.70;;;;;;;9.59;99.63;99022.16;5073499;28;20179;-72
2021/05/16 01:47:03;;;;;;;0.60;0.60;;;;;;;9.61;99.54;99022.59;5073325;28;20209;-73
2021/05/16 01:49:42;;;;;;;0.60;0.60;;;;;;;9.60;99.51;99031.91;5073303;28;20202;-73
2021/05/16 01:52:08;;;;;;;0.30;0.30;;;;;;;9.62;99.46;99030.44;5071977;28;20557;-72
2021/05/16 01:54:34;;;;;;;0.60;0.60;;;;;;;9.62;98.70;99027.72;5073259;28;20782;-72
2021/05/16 01:57:01;;;;;;;0.43;0.43;;;;;;;9.54;99.07;99021.22;5073257;28;20398;-73
2021/05/16 01:59:27;;;;;;;0.97;0.50;;;;;;;9.57;99.06;99032.59;5071735;28;20193;-73
2021/05/16 02:01:57;;;;;;;0.60;0.57;;;;;;;9.61;98.75;99039.75;5073201;28;20638;-74
2021/05/16 02:04:24;;;;;;;0.70;0.50;;;;;;;9.63;98.86;99033.97;5073599;28;20233;-73
2021/05/16 02:06:50;;;;;;;0.50;0.50;;;;;;;9.67;99.32;99026.69;5073119;28;20201;-75
2021/05/16 02:09:15;;;;;;;0.47;0.47;;;;;;;9.66;98.83;99036.00;5072993;28;20616;-76
2021/05/16 02:11:41;;;;;;;0.57;0.57;;;;;;;9.70;98.51;99032.28;5071621;28;20543;-72
2021/05/16 02:14:06;;;;;;;0.50;0.50;;;;;;;9.72;98.24;99030.00;5072947;28;20178;-73
2021/05/16 02:16:33;;;;;;;0.60;0.60;;;;;;;9.73;97.94;99034.31;5072962;28;20171;-74
2021/05/16 02:18:59;;;;;;;0.43;0.43;;;;;;;9.75;97.41;99028.53;5073040;28;20166;-73
2021/05/16 02:21:24;;;;;;;0.73;0.70;;;;;;;9.67;97.24;99038.38;5072883;28;20167;-75
2021/05/16 02:23:50;;;;;;;0.43;0.43;;;;;;;9.63;97.60;99029.31;5072834;28;20178;-73
2021/05/16 02:26:15;;;;;;;0.40;0.40;;;;;;;9.45;97.25;99026.00;5072657;28;20224;-74
2021/05/16 02:28:40;;;;;;;0.80;0.60;;;;;;;9.60;97.19;99024.53;5070430;28;20177;-74
2021/05/16 02:31:13;;;;;;;0.50;0.50;;;;;;;9.57;97.08;99027.16;5072559;28;20209;-72
2021/05/16 02:33:39;;;;;;;0.80;0.80;;;;;;;9.56;96.66;99033.75;5072681;28;20202;-73
2021/05/16 02:36:04;;;;;;;0.40;0.40;;;;;;;9.52;96.30;99034.41;5072725;28;20263;-73
2021/05/16 02:38:29;;;;;;;1.03;0.57;;;;;;;9.35;96.45;99031.88;5072680;28;20213;-75
2021/05/16 02:40:56;;;;;;;1.03;1.03;;;;;;;9.38;97.19;99036.66;5072735;28;20178;-75
2021/05/16 02:43:21;;;;;;;1.30;0.70;;;;;;;9.37;96.94;99037.78;5072436;28;20174;-73
2021/05/16 02:45:47;;;;;;;1.00;0.67;;;;;;;9.22;97.15;99038.44;5071033;28;20194;-73
2021/05/16 02:48:12;;;;;;;0.80;0.70;;;;;;;9.21;97.40;99037.63;5072314;28;20177;-73
2021/05/16 02:50:37;;;;;;;0.60;0.60;;;;;;;9.16;96.94;99037.06;5072125;28;20633;-72
2021/05/16 02:53:02;;;;;;;1.00;0.60;;;;;;;9.14;97.33;99040.13;5072148;28;20639;-73
2021/05/16 02:55:28;;;;;;;1.03;0.77;;;;;;;9.07;97.29;99034.41;5072299;28;20261;-75
2021/05/16 02:57:53;;;;;;;0.83;0.83;;;;;;;9.03;97.96;99043.59;5071911;28;20191;-73
2021/05/16 03:00:20;;;;;;;0.87;0.87;;;;;;;9.05;98.63;99035.88;5072019;28;20208;-73
2021/05/16 03:02:45;;;;;;;0.70;0.70;;;;;;;9.06;98.66;99042.91;5072231;28;20253;-75
2021/05/16 03:05:11;;;;;;;1.00;0.77;;;;;;;9.07;98.28;99039.06;5070668;28;20628;-75
2021/05/16 03:07:36;;;;;;;0.90;0.90;;;;;;;9.11;98.32;99045.44;5070682;28;20630;-76
2021/05/16 03:10:03;;;;;;;0.57;0.57;;;;;;;9.09;99.05;99040.31;5071715;28;20645;-75
2021/05/16 03:12:28;;;;;;;1.10;1.00;;;;;;;9.07;98.98;99050.75;5071725;28;20175;-75
2021/05/16 03:14:53;;;;;;;0.30;0.30;;;;;;;9.14;98.67;99047.50;5072122;28;20175;-74
2021/05/16 03:17:19;;;;;;;0.40;0.40;;;;;;;9.16;98.54;99046.03;5071699;28;20257;-74
2021/05/16 03:19:44;;;;;;;0.93;0.93;;;;;;;9.17;98.72;99049.56;5071547;28;20648;-75
2021/05/16 03:22:10;;;;;;;1.43;1.30;;;;;;;9.16;98.28;99042.50;5071666;28;20190;-75
2021/05/16 03:24:37;;;;;;;0.70;0.70;;;;;;;9.16;98.18;99050.69;5071517;28;20178;-75
2021/05/16 03:27:02;;;;;;;1.00;0.93;;;;;;;9.19;98.03;99058.97;5071487;28;20221;-75
2021/05/16 03:29:31;;;;;;;0.67;0.67;;;;;;;9.18;97.81;99054.66;5071093;28;20206;-74
2021/05/16 03:31:56;;;;;;;0.83;0.83;;;;;;;9.18;97.95;99060.09;5071808;28;20208;-75
2021/05/16 03:34:21;;;;;;;1.67;1.40;;;;;;;9.22;98.10;99065.69;5071495;28;20170;-72
2021/05/16 03:36:47;;;;;;;1.10;1.00;;;;;;;9.22;97.66;99061.03;5072675;28;20281;-72
2021/05/16 03:39:12;;;;;;;1.07;1.07;;;;;;;9.25;97.59;99068.53;5072907;28;20175;-72
2021/05/16 03:41:37;;;;;;;1.43;1.00;;;;;;;9.28;97.60;99064.34;5071570;28;20187;-73
2021/05/16 03:44:03;;;;;;;1.00;0.90;;;;;;;9.28;97.90;99066.28;5071469;28;20250;-72
2021/05/16 03:46:29;;;;;;;2.93;1.43;;;;;;;9.27;97.77;99060.03;5071131;28;20217;-72
2021/05/16 03:48:54;;;;;;;0.97;0.97;;;;;;;9.29;98.13;99065.16;5071044;28;20171;-72
2021/05/16 03:51:20;;;;;;;1.07;0.97;;;;;;;9.28;98.19;99066.28;5070883;28;20278;-72
2021/05/16 03:53:45;;;;;;;0.80;0.80;;;;;;;9.29;98.36;99057.75;5071009;28;20193;-72
2021/05/16 03:56:10;;;;;;;1.30;1.00;;;;;;;9.31;98.10;99063.66;5069810;28;20213;-72
2021/05/16 03:58:37;;;;;;;2.10;1.10;;;;;;;9.25;98.77;99059.53;5070824;28;20193;-72
2021/05/16 04:01:04;;;;;;;3.83;1.97;;;;;;;9.30;97.80;99062.06;5070876;28;20186;-72
2021/05/16 04:03:29;;;;;;;1.50;1.23;;;;;;;9.31;97.91;99065.59;5070869;28;20178;-73
2021/05/16 04:05:54;;;;;;;0.97;0.97;;;;;;;9.30;97.67;99061.28;5070883;28;20204;-72
2021/05/16 04:08:20;;;;;;;0.83;0.83;;;;;;;9.28;97.78;99058.09;5070956;28;20166;-72
2021/05/16 04:10:45;;;;;;;0.80;0.80;;;;;;;9.25;97.82;99062.28;5070834;28;20284;-72
2021/05/16 04:13:10;;;;;;;0.30;0.30;;;;;;;9.21;97.81;99069.53;5070785;28;20262;-72
2021/05/16 04:15:36;;;;;;;4.23;1.43;;;;;;;9.17;97.83;99061.25;5070754;28;20182;-72
2021/05/16 04:18:01;;;;;;;0.77;0.77;;;;;;;9.17;97.72;99061.25;5070580;28;20170;-72
2021/05/16 04:20:27;;;;;;;0.57;0.30;;;;;;;9.18;98.05;99070.22;5070791;28;20189;-72
2021/05/16 04:22:52;;;;;;;0.20;0.20;;;;;;;9.18;97.97;99064.75;5069378;28;20171;-72
2021/05/16 04:25:17;;;;;;;0.87;0.87;;;;;;;9.20;97.99;99067.94;5070942;28;20205;-72
2021/05/16 04:27:43;;;;;;;1.30;1.30;;;;;;;9.23;97.83;99076.25;5070700;28;20249;-74
2021/05/16 04:30:09;;;;;;;0.97;0.97;;;;;;;9.26;97.74;99074.78;5069287;28;20175;-75
2021/05/16 04:32:34;;;;;;;0.90;0.90;;;;;;;9.30;97.87;99070.25;5070644;28;20184;-73
2021/05/16 04:34:59;;;;;;;0.90;0.90;;;;;;;9.36;98.18;99066.16;5070661;28;20262;-75
2021/05/16 04:37:26;;;;;;;0.93;0.93;;;;;;;9.38;98.03;99066.63;5070859;28;20181;-75
2021/05/16 04:39:51;;;;;;;1.30;0.90;;;;;;;9.38;96.97;99072.06;5070520;28;20204;-74
2021/05/16 04:42:16;;;;;;;10.77;0.87;;;;;;;9.39;97.08;99070.16;5070553;28;20669;-75
2021/05/16 04:44:42;;;;;;;0.60;0.60;;;;;;;9.38;96.81;99074.81;5069154;28;20188;-75
2021/05/16 04:47:08;;;;;;;3.00;1.23;;;;;;;9.39;97.06;99076.41;5070543;28;20166;-75
2021/05/16 04:49:34;;;;;;;2.00;0.90;;;;;;;9.41;96.50;99071.44;5070386;28;20175;-74
2021/05/16 04:51:59;;;;;;;1.40;1.30;;;;;;;9.47;96.79;99078.25;5073218;28;20684;-75
2021/05/16 04:54:24;;;;;;;1.00;0.90;;;;;;;9.51;96.70;99076.44;5074467;28;20543;-75
2021/05/16 04:56:50;;;;;;;1.00;1.00;;;;;;;9.56;96.63;99082.81;5074372;28;20174;-74
2021/05/16 04:59:15;;;;;;;1.30;1.20;;;;;;;9.59;97.00;99088.38;5074218;28;20186;-75
2021/05/16 05:01:41;;;;;;;1.30;1.20;;;;;;;9.64;97.35;99090.09;5074360;28;20673;-75
2021/05/16 05:04:06;;;;;;;0.80;0.80;;;;;;;9.67;97.19;99089.41;5074373;28;20705;-75
2021/05/16 05:06:32;;;;;;;1.57;1.47;;;;;;;9.69;96.53;99087.97;5074296;28;20186;-75
2021/05/16 05:08:58;;;;;;;1.47;1.20;;;;;;;9.66;96.15;99082.38;5074046;28;20177;-73
2021/05/16 05:11:24;;;;;;;1.30;1.00;;;;;;;9.65;95.68;99084.28;5073980;28;20202;-74
2021/05/16 05:13:49;;;;;;;1.57;1.23;;;;;;;9.71;96.01;99093.88;5074101;28;20525;-74
2021/05/16 05:16:15;;;;;;;1.20;1.10;;;;;;;9.78;95.93;99096.03;5074037;28;20178;-75
2021/05/16 05:18:40;;;;;;;1.27;1.17;;;;;;;9.77;95.01;99088.97;5073954;28;20202;-74
2021/05/16 05:21:07;;;;;;;0.67;0.67;;;;;;;9.84;95.05;99091.94;5073904;28;20642;-73
2021/05/16 05:23:33;;;;;;;0.63;0.63;;;;;;;9.89;94.89;99083.53;5074021;28;20171;-75
2021/05/16 05:25:58;;;;;;;1.10;1.00;;;;;;;9.87;94.25;99082.28;5073808;28;20534;-75
2021/05/16 05:28:24;;;;;;;2.30;1.00;;;;;;;9.85;93.77;99088.09;5073725;28;20174;-75
2021/05/16 05:30:49;;;;;;;1.27;1.17;;;;;;;9.87;94.06;99076.84;5073742;28;20672;-75
2021/05/16 05:33:15;;;;;;;2.07;0.93;;;;;;;9.89;93.71;99089.00;5072456;28;20194;-75
2021/05/16 05:35:40;;;;;;;1.30;1.10;;;;;;;9.93;93.80;99078.19;5073835;28;20174;-74
2021/05/16 05:38:06;;;;;;;0.90;0.80;;;;;;;9.97;93.48;99079.88;5073489;28;20170;-75
2021/05/16 05:40:31;;;;;;;5.37;1.93;;;;;;;9.96;92.07;99086.47;5073562;28;20201;-75
2021/05/16 05:42:56;;;;;;;7.00;1.17;;;;;;;9.97;92.05;99084.53;5073601;28;20573;-75
2021/05/16 05:45:22;;;;;;;2.67;0.73;;;;;;;10.03;92.03;99088.66;5073602;28;20604;-74
2021/05/16 05:47:47;;;;;;;1.43;1.33;;;;;;;10.11;92.27;99083.06;5073823;28;20644;-74
2021/05/16 05:50:13;;;;;;;5.40;2.50;;;;;;;10.21;92.66;99086.50;5075755;28;20567;-73
2021/05/16 05:52:38;;;;;;;0.77;0.77;;;;;;;10.23;91.91;99089.69;5073324;28;20171;-75
2021/05/16 05:55:05;;;;;;;1.37;1.27;;;;;;;10.22;92.16;99082.66;5073332;28;20174;-75
2021/05/16 05:57:30;;;;;;;1.60;1.50;;;;;;;10.24;92.20;99085.81;5072949;28;20228;-75
2021/05/16 05:59:55;;;;;;;0.70;0.70;;;;;;;10.18;90.85;99092.63;5073159;28;20634;-74
2021/05/16 06:02:20;;;;;;;0.93;0.93;;;;;;;10.17;90.62;99086.38;5071812;28;20248;-74
2021/05/16 06:04:46;;;;;;;1.13;1.03;;;;;;;10.17;90.19;99083.66;5073162;28;20578;-75
2021/05/16 06:07:11;;;;;;;0.70;0.70;;;;;;;10.18;90.30;99084.44;5073151;28;20246;-73
2021/05/16 06:09:37;;;;;;;1.20;0.87;;;;;;;10.25;91.26;99080.03;5072967;28;20179;-73
2021/05/16 06:12:07;;;;;;;1.07;0.70;;;;;;;10.34;90.37;99083.44;5072897;28;20197;-73
2021/05/16 06:14:33;;;;;;;0.87;0.60;;;;;;;10.43;90.04;99083.31;5072889;28;20194;-73
2021/05/16 06:16:58;;;;;;;0.50;0.50;;;;;;;10.46;88.93;99090.81;5072872;28;20174;-74
2021/05/16 06:19:23;;;;;;;0.93;0.93;;;;;;;10.44;88.54;99090.38;5072711;28;20204;-74
2021/05/16 06:21:49;;;;;;;0.87;0.87;;;;;;;10.42;88.82;99092.66;5072707;28;20182;-73
2021/05/16 06:24:14;;;;;;;0.97;0.97;;;;;;;10.37;88.28;99093.66;5072564;28;20224;-72
2021/05/16 06:26:42;;;;;;;0.77;0.77;;;;;;;10.38;88.74;99095.25;5073037;28;20175;-72
2021/05/16 06:29:10;;;;;;;0.80;0.70;;;;;;;10.42;88.54;99092.66;5072573;28;20174;-72
2021/05/16 06:31:36;;;;;;;1.20;0.70;;;;;;;10.55;88.37;99088.75;5072597;28;20206;-72
2021/05/16 06:34:02;;;;;;;1.17;0.97;;;;;;;10.73;87.97;99105.69;5072574;28;20220;-73
2021/05/16 06:36:28;;;;;;;1.70;0.87;;;;;;;10.86;86.01;99092.78;5071199;28;20642;-73
2021/05/16 06:38:54;;;;;;;3.20;0.50;;;;;;;10.92;85.39;99097.66;5072338;28;20195;-73
2021/05/16 06:41:21;;;;;;;1.50;0.83;;;;;;;10.92;84.91;99103.13;5072416;28;20435;-73
2021/05/16 06:43:47;;;;;;;0.60;0.60;;;;;;;10.98;85.79;99090.00;5072336;28;20167;-73
2021/05/16 06:46:13;;;;;;;0.70;0.50;;;;;;;11.09;84.71;99101.25;5072290;28;20577;-74
2021/05/16 06:48:39;;;;;;;0.47;0.30;;;;;;;11.23;85.24;99107.91;5072233;28;20175;-73
2021/05/16 06:51:05;;;;;;;0.53;0.43;;;;;;;11.22;83.11;99100.84;5072080;28;20194;-72
2021/05/16 06:53:31;;;;;;;0.63;0.60;;;;;;;11.24;82.83;99112.22;5072080;28;20198;-73
2021/05/16 06:55:57;;;;;;;2.47;1.33;;;;;;;11.31;82.33;99104.22;5072328;28;20549;-73
2021/05/16 06:58:22;;;;;;;0.10;0.10;;;;;;;11.37;83.64;99109.44;5072072;28;20193;-76
2021/05/16 07:00:47;;;;;;;0.87;0.37;;;;;;;11.57;82.20;99113.88;5071966;28;20261;-76
2021/05/16 07:03:13;;;;;;;5.10;0.57;;;;;;;11.49;78.53;99095.69;5072042;28;20541;-77
2021/05/16 07:05:38;;;;;;;0.93;0.67;;;;;;;11.54;81.90;99101.69;5071808;28;20198;-76
2021/05/16 07:08:04;;;;;;;0.60;0.10;;;;;;;11.48;80.67;99105.84;5071777;28;20177;-75
2021/05/16 07:10:29;;;;;;;1.10;1.10;;;;;;;11.48;81.18;99105.84;5071700;28;20221;-77
2021/05/16 07:12:55;;;;;;;1.13;1.13;;;;;;;11.43;80.05;99110.75;5071803;28;20174;-76
2021/05/16 07:15:20;;;;;;;0.50;0.50;;;;;;;11.49;81.36;99110.16;5071427;28;20316;-76
2021/05/16 07:17:48;;;;;;;1.80;0.70;;;;;;;11.58;80.17;99102.63;5071660;28;20174;-76
2021/05/16 07:20:13;;;;;;;7.10;1.73;;;;;;;11.74;81.05;99099.88;5069105;28;20236;-76
2021/05/16 07:22:39;;;;;;;6.30;0.83;;;;;;;11.72;79.09;99107.66;5071388;28;20389;-77
2021/05/16 07:25:05;;;;;;;1.67;1.37;;;;;;;11.69;80.61;99108.34;5071326;28;20219;-77
2021/05/16 07:27:31;;;;;;;3.03;0.90;;;;;;;11.55;79.81;99107.97;5071680;28;20174;-77
2021/05/16 07:29:56;;;;;;;0.43;0.20;;;;;;;11.60;80.19;99114.00;5071565;28;20209;-76
2021/05/16 07:32:21;;;;;;;0.30;0.30;;;;;;;11.69;81.56;99107.53;5071176;28;20223;-77
2021/05/16 07:34:47;;;;;;;4.63;1.03;;;;;;;11.75;81.05;99108.91;5071369;28;20230;-77
2021/05/16 07:37:12;;;;;;;1.60;1.50;;;;;;;11.71;79.70;99111.50;5071292;28;20171;-77
2021/05/16 07:39:38;;;;;;;1.93;1.83;;;;;;;11.69;79.52;99121.22;5071080;28;20701;-77
2021/05/16 07:42:03;;;;;;;1.13;1.03;;;;;;;11.80;79.81;99109.44;5071207;28;20173;-77
2021/05/16 07:44:28;;;;;;;0.53;0.53;;;;;;;11.72;78.58;99110.41;5071230;28;20257;-76
2021/05/16 07:46:54;;;;;;;1.23;0.87;;;;;;;11.71;80.10;99118.94;5071132;28;20175;-76
2021/05/16 07:49:21;;;;;;;3.10;0.60;;;;;;;11.67;78.10;99116.09;5071165;28;20171;-77
2021/05/16 07:51:46;;;;;;;1.47;0.90;;;;;;;11.78;80.36;99106.25;5071019;28;20199;-76
2021/05/16 07:54:11;;;;;;;0.67;0.50;;;;;;;11.87;77.24;99109.66;5071172;28;20177;-77
2021/05/16 07:56:37;;;;;;;0.00;0.00;;;;;;;11.97;78.92;99112.97;5071079;28;20171;-75
2021/05/16 07:59:02;;;;;;;2.00;1.23;;;;;;;12.06;79.17;99111.66;5070877;28;20634;-76
2021/05/16 08:01:28;;;;;;;0.30;0.30;;;;;;;12.16;78.56;99118.56;5070774;28;20729;-77
2021/05/16 08:03:54;;;;;;;0.40;0.40;;;;;;;12.13;77.54;99113.78;5071021;28;20170;-76
2021/05/16 08:06:19;;;;;;;1.63;1.53;;;;;;;12.27;78.93;99119.59;5069720;28;20277;-77
2021/05/16 08:08:44;;;;;;;2.43;1.03;;;;;;;12.23;78.53;99118.72;5070807;28;20566;-75
2021/05/16 08:11:10;;;;;;;1.60;0.50;;;;;;;12.15;77.17;99114.19;5070920;28;20202;-75
2021/05/16 08:13:35;;;;;;;1.33;0.50;;;;;;;11.95;76.62;99115.28;5071012;28;20180;-75
2021/05/16 08:16:01;;;;;;;2.77;1.13;;;;;;;11.87;78.28;99123.31;5070922;28;20174;-75
2021/05/16 08:18:26;;;;;;;0.70;0.70;;;;;;;11.72;80.54;99117.81;5070675;28;20174;-74
2021/05/16 08:20:52;;;;;;;0.00;0.00;;;;;;;11.51;80.48;99126.22;5070755;28;20182;-74
2021/05/16 08:23:17;;;;;;;0.30;0.30;;;;;;;11.38;80.80;99117.28;5070808;28;20178;-75
2021/05/16 08:25:43;;;;;;;1.13;0.60;;;;;;;11.38;81.73;99120.03;5069815;28;20167;-73
2021/05/16 08:28:09;;;;;;;1.13;0.80;;;;;;;11.38;83.10;99124.69;5069180;28;20217;-76
2021/05/16 08:30:35;;;;;;;0.63;0.53;;;;;;;11.40;82.46;99117.72;5068704;28;20615;-74
2021/05/16 08:33:00;;;;;;;1.70;0.77;;;;;;;11.40;80.99;99119.66;5070476;28;20232;-76
2021/05/16 08:35:26;;;;;;;1.20;1.07;;;;;;;11.40;80.40;99117.72;5070553;28;20182;-75
2021/05/16 08:37:52;;;;;;;5.50;1.00;;;;;;;11.47;79.64;99119.88;5070553;28;20174;-76
2021/05/16 08:40:17;;;;;;;0.47;0.20;;;;;;;11.61;80.64;99126.53;5070600;28;20189;-76
2021/05/16 08:42:43;;;;;;;1.43;1.37;;;;;;;11.72;79.57;99115.06;5070575;28;20603;-76
2021/05/16 08:45:10;;;;;;;0.93;0.67;;;;;;;11.82;79.33;99120.03;5070697;28;20174;-76
2021/05/16 08:47:44;;;;;;;5.17;0.93;;;;;;;11.91;79.03;99118.72;5052702;28;20193;-76
2021/05/16 08:50:12;;;;;;;1.90;0.47;;;;;;;12.01;78.20;99113.88;5069251;28;20715;-76
2021/05/16 08:52:37;;;;;;;1.97;1.27;;;;;;;12.17;76.67;99117.41;5070334;28;20245;-76
2021/05/16 08:55:04;;;;;;;2.13;1.20;;;;;;;12.37;78.10;99108.09;5070289;28;20240;-76
2021/05/16 08:57:30;;;;;;;2.37;0.63;;;;;;;12.50;76.35;99109.56;5070179;28;20190;-76
2021/05/16 09:00:08;;;;;;;1.23;1.13;;;;;;;12.55;73.88;99104.97;5070237;28;20244;-76
2021/05/16 09:02:33;;;;;;;0.30;0.30;;;;;;;12.67;75.27;99110.31;5070797;28;20186;-74
2021/05/16 09:04:59;;;;;;;8.70;1.60;;;;;;;12.76;75.10;99102.72;5069164;28;20537;-74
2021/05/16 09:07:29;;;;;;;0.50;0.50;;;;;;;12.84;71.86;99095.41;5070219;28;20171;-74
2021/05/16 09:09:54;;;;;;;1.37;1.10;;;;;;;12.98;72.38;99096.50;5070163;28;20270;-74
2021/05/16 09:12:22;;;;;;;0.30;0.30;;;;;;;13.03;70.59;99103.66;5070365;28;20281;-73
2021/05/16 09:14:48;;;;;;;0.53;0.53;;;;;;;13.13;72.97;99105.03;5070216;28;20265;-74
2021/05/16 09:17:20;;;;;;;0.30;0.30;;;;;;;13.17;71.28;99100.44;5070136;28;20178;-75
2021/05/16 09:19:47;;;;;;;1.47;0.60;;;;;;;13.18;72.55;99102.84;5065752;28;20308;-74
2021/05/16 09:22:42;;;;;;;1.20;0.90;;;;;;;13.35;72.87;99105.13;5070097;28;20178;-75
2021/05/16 09:25:12;;;;;;;2.17;0.93;;;;;;;13.35;70.94;99105.13;5070620;28;20178;-76
2021/05/16 09:27:38;;;;;;;2.37;1.07;;;;;;;13.56;72.59;99103.94;5070205;28;20197;-75
2021/05/16 09:30:25;;;;;;;1.50;0.50;;;;;;;13.77;69.66;99103.53;5069954;28;20651;-75
2021/05/16 09:33:13;;;;;;;2.20;0.43;;;;;;;13.82;69.99;99100.47;5070042;28;20208;-75
2021/05/16 09:35:39;;;;;;;1.43;0.83;;;;;;;13.81;66.32;99091.44;5070217;28;20182;-76
2021/05/16 09:38:08;;;;;;;0.70;0.30;;;;;;;13.78;65.87;99092.19;5073218;28;20179;-73
2021/05/16 09:40:41;;;;;;;1.37;0.53;;;;;;;13.63;66.44;99093.91;5074893;28;20502;-73
2021/05/16 09:43:18;;;;;;;1.57;0.53;;;;;;;13.63;67.21;99093.09;5073756;28;20238;-72
2021/05/16 09:45:52;;;;;;;0.10;0.10;;;;;;;13.46;68.57;99105.34;5073639;28;20169;-73
2021/05/16 09:48:43;;;;;;;6.90;1.37;;;;;;;13.30;68.64;99104.59;5073484;28;20185;-74
2021/05/16 09:51:16;;;;;;;0.27;0.10;;;;;;;13.04;69.19;99111.53;5073514;28;20202;-74
2021/05/16 09:54:04;;;;;;;0.10;0.10;;;;;;;12.93;69.65;99110.50;5073450;28;20656;-72
2021/05/16 09:56:32;;;;;;;0.60;0.30;;;;;;;13.00;69.46;99107.13;5073716;28;20181;-74
2021/05/16 09:59:00;;;;;;;0.87;0.57;;;;;;;13.17;69.77;99103.16;5073472;28;20240;-75
2021/05/16 10:01:27;;;;;;;1.90;0.70;;;;;;;13.33;69.21;99099.22;5073242;28;20557;-76
2021/05/16 10:03:57;;;;;;;1.13;0.57;;;;;;;13.45;68.79;99100.19;5071861;28;20647;-75
2021/05/16 10:06:23;;;;;;;0.87;0.30;;;;;;;13.43;69.98;99092.31;5073156;28;20189;-75
2021/05/16 10:08:49;;;;;;;0.20;0.20;;;;;;;13.40;70.78;99093.84;5073044;28;20170;-75
2021/05/16 10:11:20;;;;;;;0.10;0.10;;;;;;;13.54;65.68;99087.84;5072974;28;20210;-75
2021/05/16 10:13:51;;;;;;;1.23;0.87;;;;;;;13.72;65.82;99082.66;5073258;28;20171;-75
2021/05/16 10:16:17;;;;;;;0.50;0.17;;;;;;;14.09;66.29;99079.34;5073355;28;20178;-74
2021/05/16 10:18:45;;;;;;;0.27;0.27;;;;;;;14.16;64.03;99082.19;5072816;28;20258;-74
2021/05/16 10:21:11;;;;;;;0.70;0.67;;;;;;;14.13;61.64;99086.50;5072872;28;20174;-74
2021/05/16 10:23:38;;;;;;;0.23;0.23;;;;;;;14.38;65.08;99094.31;5072761;28;20170;-75
2021/05/16 10:26:25;;;;;;;0.53;0.53;;;;;;;14.32;62.27;99082.88;5072706;28;20173;-73
2021/05/16 10:28:58;;;;;;;2.70;0.77;;;;;;;14.23;61.00;99085.88;5072646;28;20585;-76
2021/05/16 10:31:42;;;;;;;0.27;0.27;;;;;;;14.43;61.14;99083.00;5072929;28;20199;-75
2021/05/16 10:34:39;;;;;;;1.90;0.13;;;;;;;14.57;61.36;99077.75;5073047;28;20511;-74
2021/05/16 10:37:05;;;;;;;1.80;1.43;;;;;;;14.43;64.17;99070.06;5072015;28;20547;-76
2021/05/16 10:39:39;;;;;;;0.10;0.10;;;;;;;14.37;63.55;99084.50;5072369;28;20174;-76
2021/05/16 10:42:17;;;;;;;0.10;0.10;;;;;;;14.26;62.57;99070.59;5071195;28;20181;-76
2021/05/16 10:44:58;;;;;;;0.23;0.23;;;;;;;13.88;59.58;99058.63;5070928;28;20179;-75
2021/05/16 10:47:49;;;;;;;0.47;0.20;;;;;;;13.82;60.11;99062.03;5070450;28;20175;-75
2021/05/16 10:50:23;;;;;;;0.00;0.00;;;;;;;13.85;57.48;99059.34;5056501;28;20215;-75
2021/05/16 10:53:10;;;;;;;0.20;0.20;;;;;;;13.99;60.62;99056.03;5052147;28;20640;-75
2021/05/16 10:55:44;;;;;;;0.50;0.27;;;;;;;14.11;60.08;99058.59;5052192;28;20171;-74
2021/05/16 10:58:32;;;;;;;0.50;0.50;;;;;;;14.38;61.59;99045.66;5052006;28;20187;-75
2021/05/16 11:01:11;;;;;;;0.57;0.17;;;;;;;14.42;62.59;99041.00;5045175;28;20554;-75
2021/05/16 11:03:53;;;;;;;0.63;0.63;;;;;;;14.45;62.86;99039.50;5050809;28;20658;-74
2021/05/16 11:06:21;;;;;;;0.30;0.30;;;;;;;14.51;63.34;99040.78;5051988;28;20168;-78
2021/05/16 11:08:49;;;;;;;4.97;0.53;;;;;;;14.51;64.41;99040.78;5050906;28;20642;-77
2021/05/16 11:11:36;;;;;;;1.50;0.67;;;;;;;14.62;63.21;99033.47;5052260;28;20216;-78
2021/05/16 11:14:22;;;;;;;0.73;0.50;;;;;;;14.77;63.26;99034.44;5059146;28;20178;-77
2021/05/16 11:16:50;;;;;;;0.43;0.23;;;;;;;14.95;62.98;99027.19;5070452;28;20665;-77
2021/05/16 11:19:15;;;;;;;1.40;0.63;;;;;;;15.02;63.83;99021.75;5071651;28;20174;-76
2021/05/16 11:21:41;;;;;;;1.00;0.30;;;;;;;15.02;61.16;99018.22;5071695;28;20186;-76
2021/05/16 11:24:07;;;;;;;1.60;0.97;;;;;;;14.95;61.16;99023.66;5071543;28;20198;-76
2021/05/16 11:26:32;;;;;;;0.10;0.10;;;;;;;14.90;58.33;99022.03;5071502;28;20677;-77
2021/05/16 11:28:59;;;;;;;0.20;0.20;;;;;;;14.78;59.59;99019.53;5071426;28;20213;-78
2021/05/16 11:31:33;;;;;;;2.10;0.17;;;;;;;14.78;59.34;99023.06;5071427;28;20210;-78
2021/05/16 11:34:02;;;;;;;0.20;0.20;;;;;;;14.72;59.31;99021.78;5071465;28;20616;-77
2021/05/16 11:36:36;;;;;;;2.90;0.50;;;;;;;14.67;61.79;99024.09;5071318;28;20174;-77
2021/05/16 11:39:05;;;;;;;2.90;1.17;;;;;;;14.61;58.86;99028.31;5071206;28;20183;-77